Weather reports worldwide

Advertisment
Monte Cimone, Italy (16134): temperature & dewpoint: 17.04.2018 01:00:00 - 23.04.2018 01:00:00 (CEST)Monte Cimone, Italy (16134): wind speed: 17.04.2018 01:00:00 - 23.04.2018 01:00:00 (CEST)Monte Cimone, Italy (16134): wind direction: 17.04.2018 01:00:00 - 23.04.2018 01:00:00 (CEST)Monte Cimone, Italy (16134): visibility: 17.04.2018 01:00:00 - 23.04.2018 01:00:00 (CEST)Monte Cimone, Italy (16134): sunshine duration: 17.04.2018 01:00:00 - 23.04.2018 01:00:00 (CEST)
Date & Time tt [°C] td [°C] ff [km/h] ff [kn] dd vv [km] sd [min]
23.04.2018 01:00:00 7,6 2,3 21 11 WSW 50 -
23.04.2018 00:00:00 7,6 3,5 13 7 WSW 50 -
22.04.2018 23:00:00 8,0 4,8 11 6 WSW 50 -
22.04.2018 22:00:00 8,2 2,2 11 6 WSW 50 -
22.04.2018 21:00:00 8,2 1,6 9 5 WSW 50 -
22.04.2018 20:00:00 9,2 1,8 9 5 SW 50 6
22.04.2018 19:00:00 9,0 1,7 5 3 ENE 50 60
22.04.2018 18:00:00 9,2 1,8 8 4 E 50 60
22.04.2018 17:00:00 10,0 1,6 11 6 E 50 60
22.04.2018 16:00:00 10,0 -1,1 15 8 ENE 50 60
22.04.2018 15:00:00 10,0 -4,0 13 7 ENE 50 60
22.04.2018 14:00:00 10,2 -3,8 11 6 NE 50 60
22.04.2018 13:00:00 9,2 -4,0 5 3 NE 50 60
22.04.2018 12:00:00 8,8 -4,4 8 4 ENE 50 60
22.04.2018 11:00:00 8,0 -5,1 8 4 E 50 60
22.04.2018 10:00:00 6,8 -6,9 15 8 ENE 50 60
22.04.2018 09:00:00 6,8 -6,9 26 14 NNE 50 60
22.04.2018 08:00:00 6,2 -6,4 28 15 NNE 50 54
22.04.2018 07:00:00 6,0 -4,7 26 14 N 50 -
22.04.2018 06:00:00 6,0 -2,6 18 10 N 50 -
22.04.2018 05:00:00 6,0 -2,9 13 7 N 50 -
22.04.2018 04:00:00 6,2 -2,9 11 6 NNW 50 -
22.04.2018 03:00:00 6,4 -3,0 13 7 NNW 50 -
22.04.2018 02:00:00 6,6 -4,5 15 8 N 50 -
22.04.2018 01:00:00 6,8 -5,2 21 11 N 50 -
22.04.2018 00:00:00 5,8 -4,9 24 13 NNE 50 -
21.04.2018 23:00:00 5,8 -4,9 24 13 NNE 50 -
21.04.2018 22:00:00 6,6 -2,0 21 11 N 50 -
21.04.2018 21:00:00 6,8 -1,9 15 8 N 50 -
21.04.2018 20:00:00 7,0 0,0 13 7 N 50 18
21.04.2018 19:00:00 7,2 0,0 21 11 NNE 50 60
21.04.2018 18:00:00 7,0 -0,7 22 12 NNE 50 60
21.04.2018 17:00:00 7,2 -0,8 31 17 ENE 50 60
21.04.2018 16:00:00 7,2 0,0 34 18 ENE 50 60
21.04.2018 15:00:00 8,2 0,9 35 19 ENE 50 60
21.04.2018 14:00:00 7,0 0,9 34 18 ENE 50 60
21.04.2018 13:00:00 6,2 0,5 39 21 NE 50 60
21.04.2018 12:00:00 6,0 0,1 44 24 ENE 50 60
21.04.2018 11:00:00 5,8 -2,8 46 25 ENE 50 60
21.04.2018 10:00:00 5,0 -2,8 39 21 NE 50 60
21.04.2018 09:00:00 5,0 -0,4 52 28 NE 50 60
21.04.2018 08:00:00 4,4 0,9 46 25 NNE 50 60
21.04.2018 07:00:00 4,2 0,4 46 25 NNE 50 0
21.04.2018 06:00:00 4,6 -0,4 46 25 NNE 50 -
21.04.2018 05:00:00 4,6 0,2 42 23 NE 50 -
21.04.2018 04:00:00 5,0 0,4 44 24 ENE 50 -
21.04.2018 03:00:00 5,0 -0,4 48 26 ENE 50 -
21.04.2018 02:00:00 5,2 -0,8 55 30 E 50 -
21.04.2018 01:00:00 5,2 -2,4 54 29 E 50 -
21.04.2018 00:00:00 5,2 -4,9 61 33 E 50 -
20.04.2018 23:00:00 5,0 -4,5 50 27 ENE 50 -
20.04.2018 22:00:00 5,0 -0,4 41 22 ENE 50 -
20.04.2018 21:00:00 5,0 0,0 46 25 ENE 50 -
20.04.2018 20:00:00 5,0 3,2 28 15 E 30 0
20.04.2018 19:00:00 5,2 2,9 29 16 E 50 60
20.04.2018 18:00:00 5,6 1,9 29 16 NE 50 60
20.04.2018 17:00:00 5,8 0,4 35 19 NE 50 60
20.04.2018 16:00:00 6,0 -0,1 34 18 ENE 50 60
20.04.2018 15:00:00 5,4 -1,3 31 17 ENE 50 60
20.04.2018 14:00:00 5,4 -0,7 34 18 ENE 50 60
20.04.2018 13:00:00 5,0 -3,3 41 22 ENE 50 60
20.04.2018 12:00:00 4,8 -1,9 55 30 ENE 50 60
20.04.2018 11:00:00 4,6 -3,0 63 34 ENE 50 60
20.04.2018 10:00:00 4,2 -1,8 61 33 NE 40 60
20.04.2018 09:00:00 3,8 -2,2 48 26 NE 30 60
20.04.2018 08:00:00 3,2 -1,0 63 34 NNE 30 30
20.04.2018 07:00:00 3,4 -0,8 52 28 NE 30 -
20.04.2018 06:00:00 3,6 -1,7 48 26 NE 30 -
20.04.2018 05:00:00 3,6 -2,0 61 33 ENE 30 -
20.04.2018 04:00:00 3,6 -1,0 59 32 ENE 30 -
20.04.2018 03:00:00 3,8 -1,2 61 33 ENE 30 -
20.04.2018 02:00:00 2,8 -0,8 63 34 ENE 30 -
20.04.2018 01:00:00 3,8 0,3 59 32 ENE 30 -
20.04.2018 00:00:00 4,0 -0,8 63 34 ENE 30 -
19.04.2018 23:00:00 4,0 -0,6 59 32 ENE 30 -
19.04.2018 22:00:00 3,4 -0,2 48 26 NE 20 -
19.04.2018 21:00:00 3,4 1,3 48 26 NE 15 -
19.04.2018 20:00:00 3,8 2,5 31 17 NNE 1,2 0
19.04.2018 19:00:00 4,2 2,1 24 13 NNE 1,2 0
19.04.2018 18:00:00 4,2 2,7 18 10 NE 1,2 54
19.04.2018 17:00:00 4,8 2,3 22 12 NE 2,0 60
19.04.2018 16:00:00 4,8 2,0 21 11 ENE 20 60
19.04.2018 15:00:00 4,6 1,3 18 10 NE 20 60
19.04.2018 14:00:00 4,0 0,2 29 16 NE 20 60
19.04.2018 13:00:00 3,4 -1,3 48 26 NNE 20 60
19.04.2018 12:00:00 3,0 -3,3 42 23 NNE 20 60
19.04.2018 11:00:00 2,4 -4,6 74 40 NE 20 60
19.04.2018 10:00:00 2,4 -3,7 78 42 NE 20 60
19.04.2018 09:00:00 2,2 -2,7 78 42 NE 20 60
19.04.2018 08:00:00 2,0 -2,3 74 40 NE 20 36
19.04.2018 07:00:00 2,0 -2,7 72 39 NE 20 -
19.04.2018 06:00:00 2,0 -2,9 74 40 NE 20 -
19.04.2018 05:00:00 2,0 -2,7 70 38 NE 20 -
19.04.2018 04:00:00 2,0 -2,9 74 40 NE 20 -
19.04.2018 03:00:00 2,2 -3,5 70 38 NE 20 -
19.04.2018 02:00:00 2,4 -3,9 67 36 NE 20 -
19.04.2018 01:00:00 2,8 -5,3 70 38 ENE 20 -
19.04.2018 00:00:00 2,8 -5,3 72 39 ENE 20 -
18.04.2018 23:00:00 3,2 -8,8 76 41 ENE 20 -
18.04.2018 22:00:00 3,0 -4,7 67 36 ENE 20 -
18.04.2018 21:00:00 2,8 -4,2 50 27 NE 20 -
18.04.2018 20:00:00 3,0 -4,4 41 22 NE 20 30
18.04.2018 19:00:00 2,8 -3,1 37 20 NNE 20 60
18.04.2018 18:00:00 2,8 -1,7 35 19 NNE 20 48
18.04.2018 17:00:00 2,6 -2,7 46 25 NE 20 48
18.04.2018 16:00:00 2,6 -2,3 52 28 NE 20 24
18.04.2018 15:00:00 2,2 -1,8 57 31 NE 20 0
18.04.2018 14:00:00 2,0 -0,8 61 33 NE 15 0
18.04.2018 13:00:00 2,0 0,2 68 37 NE - 0
18.04.2018 12:00:00 2,2 0,6 67 36 NNE - 0
18.04.2018 11:00:00 1,8 0,0 65 35 NE - 0
18.04.2018 10:00:00 1,8 0,0 63 34 NE - 0
18.04.2018 09:00:00 1,4 -0,4 70 38 NE - 0
18.04.2018 08:00:00 1,4 -0,5 63 34 NE - 0
18.04.2018 07:00:00 1,4 -0,2 68 37 NE - -
18.04.2018 06:00:00 1,8 1,1 61 33 NE - -
18.04.2018 05:00:00 2,2 0,7 59 32 NE - -
18.04.2018 04:00:00 2,2 0,7 54 29 NE - -
18.04.2018 03:00:00 2,0 0,4 50 27 NE - -
18.04.2018 02:00:00 2,2 0,7 61 33 ENE - -
18.04.2018 01:00:00 2,2 0,6 61 33 ENE - -
18.04.2018 00:00:00 2,4 1,4 54 29 ENE 20 -
17.04.2018 23:00:00 2,4 1,4 42 23 NE 20 -
17.04.2018 22:00:00 2,6 1,1 55 30 NE 20 -
17.04.2018 21:00:00 2,6 0,5 63 34 NNE 20 -
17.04.2018 20:00:00 3,0 1,1 50 27 N - 0
17.04.2018 19:00:00 3,0 1,4 46 25 N - 0
17.04.2018 18:00:00 3,2 1,7 37 20 N - 0
17.04.2018 17:00:00 3,2 2,5 46 25 NNE - 0
17.04.2018 16:00:00 3,2 1,2 48 26 NNE 0,3 0
17.04.2018 15:00:00 3,0 2,1 48 26 NE - 0
17.04.2018 14:00:00 3,0 2,3 42 23 NE - 0
17.04.2018 13:00:00 3,2 2,5 37 20 ENE - 0
17.04.2018 12:00:00 3,4 2,7 34 18 NE - 0
17.04.2018 11:00:00 3,0 2,3 29 16 NE - 0
17.04.2018 10:00:00 3,2 2,6 29 16 ENE - 0
17.04.2018 09:00:00 3,2 2,6 24 13 NNE - 0
17.04.2018 08:00:00 3,0 2,6 24 13 NE - 0
17.04.2018 07:00:00 3,2 3,1 26 14 NE - -
17.04.2018 06:00:00 3,2 3,1 29 16 NE - -
17.04.2018 05:00:00 3,4 3,4 26 14 ENE - -
17.04.2018 04:00:00 3,8 2,6 28 15 ENE 15 -
17.04.2018 03:00:00 3,8 1,5 16 9 NE 20 -
17.04.2018 02:00:00 4,0 -0,8 18 10 NE 30 -
17.04.2018 01:00:00 4,0 -0,6 16 9 N 30 -

tt = temperature
td = dewpoint
ff = wind speed
dd = wind direction
vv = visibility
sd = sunshine duration

Next stations